createdAt,value
2022-09-01T00:00:13.384Z,74.46
2022-09-01T00:02:40.189Z,74.93
2022-09-01T00:05:07.817Z,73.90
2022-09-01T00:07:35.466Z,74.42
2022-09-01T00:10:05.971Z,74.13
2022-09-01T00:12:32.594Z,74.18
2022-09-01T00:14:59.385Z,74.69
2022-09-01T00:17:26.579Z,74.87
2022-09-01T00:19:53.727Z,74.31
2022-09-01T00:22:20.538Z,74.48
2022-09-01T00:24:47.205Z,75.09
2022-09-01T00:27:13.899Z,75.29
2022-09-01T00:29:43.420Z,75.67
2022-09-01T00:32:11.673Z,76.00
2022-09-01T00:34:38.763Z,76.70
2022-09-01T00:37:08.488Z,77.63
2022-09-01T00:39:35.225Z,77.78
2022-09-01T00:42:02.257Z,79.02
2022-09-01T00:44:31.856Z,79.73
2022-09-01T00:46:59.824Z,79.54
2022-09-01T00:49:31.406Z,78.72
2022-09-01T00:52:06.845Z,78.85
2022-09-01T00:54:37.607Z,78.28
2022-09-01T00:57:06.048Z,79.05
2022-09-01T00:59:33.060Z,79.30
2022-09-01T01:01:59.815Z,79.91
2022-09-01T01:04:26.490Z,79.97
2022-09-01T01:07:03.126Z,79.86
2022-09-01T01:09:36.148Z,80.31
2022-09-01T01:12:05.392Z,79.93
2022-09-01T01:14:36.994Z,79.95
2022-09-01T01:17:04.148Z,78.99
2022-09-01T01:20:01.135Z,78.66
2022-09-01T01:23:02.733Z,78.47
2022-09-01T01:25:34.503Z,77.92
2022-09-01T01:28:18.732Z,76.35
2022-09-01T01:30:52.517Z,76.11
2022-09-01T01:33:25.875Z,75.93
2022-09-01T01:35:53.705Z,76.18
2022-09-01T01:38:23.169Z,76.04
2022-09-01T01:40:51.899Z,76.40
2022-09-01T01:43:21.925Z,76.13
2022-09-01T01:45:52.478Z,76.25
2022-09-01T01:48:23.033Z,76.54
2022-09-01T01:50:53.210Z,76.49
2022-09-01T01:53:19.988Z,75.88
2022-09-01T01:55:50.908Z,76.20
2022-09-01T01:58:22.719Z,75.73
2022-09-01T02:00:51.388Z,77.04
2022-09-01T02:03:21.897Z,77.68
2022-09-01T02:05:50.262Z,77.67
2022-09-01T02:08:22.756Z,78.84
2022-09-01T02:10:52.063Z,78.13
2022-09-01T02:13:20.974Z,78.40
2022-09-01T02:15:53.852Z,78.69
2022-09-01T02:18:34.316Z,78.36
2022-09-01T02:21:02.161Z,78.01
2022-09-01T02:23:30.100Z,78.47
2022-09-01T02:26:16.231Z,79.23
2022-09-01T02:28:54.221Z,78.16
2022-09-01T02:31:23.140Z,76.48
2022-09-01T02:33:49.990Z,76.34
2022-09-01T02:36:19.539Z,76.33
2022-09-01T02:38:53.341Z,77.90
2022-09-01T02:41:23.104Z,78.41
2022-09-01T02:43:50.455Z,79.03
2022-09-01T02:46:17.404Z,79.22
2022-09-01T02:48:46.231Z,78.18
2022-09-01T02:51:18.615Z,78.02
2022-09-01T02:53:49.853Z,78.34
2022-09-01T02:56:18.245Z,79.46
2022-09-01T02:58:46.811Z,79.22
2022-09-01T03:01:20.521Z,78.71
2022-09-01T03:03:51.720Z,78.93
2022-09-01T03:06:24.037Z,79.31
2022-09-01T03:08:53.137Z,78.63
2022-09-01T03:11:19.829Z,78.95
2022-09-01T03:13:47.145Z,79.67
2022-09-01T03:16:13.956Z,79.90
2022-09-01T03:18:42.954Z,80.16
2022-09-01T03:21:16.181Z,80.03
2022-09-01T03:23:45.462Z,79.91
2022-09-01T03:26:14.525Z,79.52
2022-09-01T03:28:41.327Z,79.49
2022-09-01T03:31:09.002Z,78.66
2022-09-01T03:33:37.012Z,79.12
2022-09-01T03:36:05.443Z,79.02
2022-09-01T03:38:44.331Z,79.40
2022-09-01T03:41:13.330Z,79.77
2022-09-01T03:43:45.978Z,79.68
2022-09-01T03:46:22.045Z,79.36
2022-09-01T03:48:55.299Z,78.34
2022-09-01T03:51:23.431Z,79.00
2022-09-01T03:53:54.943Z,77.96
2022-09-01T03:56:26.201Z,77.53
2022-09-01T03:58:56.277Z,76.05
2022-09-01T04:01:24.830Z,75.07
2022-09-01T04:03:52.235Z,74.25
2022-09-01T04:06:19.456Z,73.87
2022-09-01T04:08:47.292Z,74.18
2022-09-01T04:11:19.198Z,74.37
2022-09-01T04:13:47.404Z,74.43
2022-09-01T04:16:38.848Z,73.81
2022-09-01T04:19:15.991Z,74.38
2022-09-01T04:21:44.147Z,74.43
2022-09-01T04:24:12.243Z,74.71
2022-09-01T04:26:40.729Z,74.09
2022-09-01T04:29:09.205Z,74.60
2022-09-01T04:31:38.784Z,74.09
2022-09-01T04:34:13.455Z,73.97
2022-09-01T04:36:43.601Z,74.55
2022-09-01T04:39:12.409Z,73.53
2022-09-01T04:41:42.683Z,73.19
2022-09-01T04:44:09.925Z,72.94
2022-09-01T04:46:42.335Z,72.62
2022-09-01T04:49:13.252Z,72.72
2022-09-01T04:51:51.188Z,73.22
2022-09-01T04:54:20.995Z,73.39
2022-09-01T04:56:50.851Z,74.13
2022-09-01T04:59:20.671Z,73.53
2022-09-01T05:01:50.743Z,72.42
2022-09-01T05:04:23.981Z,72.97
2022-09-01T05:06:56.075Z,73.23
2022-09-01T05:09:25.299Z,73.41
2022-09-01T05:11:53.029Z,73.50
2022-09-01T05:14:22.523Z,73.00
2022-09-01T05:16:51.002Z,73.59
2022-09-01T05:19:20.893Z,72.56
2022-09-01T05:21:48.669Z,72.43
2022-09-01T05:24:21.831Z,73.36
2022-09-01T05:26:50.714Z,73.47
2022-09-01T05:29:18.036Z,73.12
2022-09-01T05:31:49.596Z,73.20
2022-09-01T05:34:26.498Z,72.50
2022-09-01T05:36:58.172Z,73.21
2022-09-01T05:39:26.177Z,72.44
2022-09-01T05:41:54.075Z,72.16
2022-09-01T05:44:24.952Z,72.53
2022-09-01T05:46:53.294Z,73.01
2022-09-01T05:49:20.058Z,73.35
2022-09-01T05:51:50.509Z,73.33
2022-09-01T05:54:23.383Z,73.69
2022-09-01T05:56:53.218Z,73.55
2022-09-01T05:59:25.553Z,73.67
2022-09-01T06:01:53.970Z,74.19
2022-09-01T06:04:21.145Z,74.08
2022-09-01T06:07:05.890Z,74.29
2022-09-01T06:09:40.682Z,73.70
2022-09-01T06:12:09.267Z,73.49
2022-09-01T06:14:36.035Z,73.46
2022-09-01T06:17:05.870Z,73.31
2022-09-01T06:19:36.860Z,74.24
2022-09-01T06:22:04.594Z,73.99
2022-09-01T06:24:31.231Z,73.44
2022-09-01T06:26:58.759Z,73.43
2022-09-01T06:29:25.474Z,73.06
2022-09-01T06:31:52.891Z,72.63
2022-09-01T06:34:19.942Z,72.18
2022-09-01T06:36:49.640Z,72.84
2022-09-01T06:39:20.130Z,72.42
2022-09-01T06:41:53.213Z,73.05
2022-09-01T06:44:24.706Z,72.91
2022-09-01T06:46:53.110Z,72.36
2022-09-01T06:49:21.631Z,72.49
2022-09-01T06:51:51.845Z,72.04
2022-09-01T06:54:21.048Z,72.35
2022-09-01T06:56:51.820Z,71.87
2022-09-01T06:59:20.917Z,71.14
2022-09-01T07:01:49.927Z,70.74
2022-09-01T07:04:21.383Z,69.70
2022-09-01T07:07:00.226Z,69.33
2022-09-01T07:09:47.324Z,69.18
2022-09-01T07:12:27.602Z,68.48
2022-09-01T07:17:43.210Z,67.45
2022-09-01T07:20:27.251Z,67.24
2022-09-01T07:23:06.466Z,67.07
2022-09-01T07:26:00.936Z,66.94
2022-09-01T07:28:37.689Z,67.28
2022-09-01T07:33:55.614Z,66.50
2022-09-01T07:45:26.888Z,64.94
2022-09-01T07:47:54.794Z,65.50
2022-09-01T07:50:39.916Z,64.71
2022-09-01T07:53:15.448Z,64.80
2022-09-01T07:55:44.009Z,65.12
2022-09-01T07:58:12.315Z,65.00
2022-09-01T08:00:46.255Z,64.76
2022-09-01T08:03:18.901Z,65.32
2022-09-01T08:05:55.994Z,65.09
2022-09-01T08:08:26.403Z,64.66
2022-09-01T08:11:04.243Z,64.89
2022-09-01T08:13:34.665Z,64.48
2022-09-01T08:16:07.705Z,64.17
2022-09-01T08:18:50.789Z,64.24
2022-09-01T08:21:22.145Z,64.50
2022-09-01T08:23:49.523Z,65.01
2022-09-01T08:26:18.861Z,64.87
2022-09-01T08:28:46.427Z,64.82
2022-09-01T08:31:19.740Z,64.73
2022-09-01T08:33:49.632Z,63.53
2022-09-01T08:36:21.582Z,63.07
2022-09-01T08:38:51.246Z,63.60
2022-09-01T08:41:35.494Z,63.89
2022-09-01T08:44:31.590Z,64.14
2022-09-01T08:47:05.684Z,64.04
2022-09-01T08:49:44.340Z,63.56
2022-09-01T08:52:22.829Z,63.53
2022-09-01T08:54:58.000Z,64.61
2022-09-01T08:57:32.133Z,64.85
2022-09-01T08:59:59.307Z,64.50
2022-09-01T09:02:26.138Z,64.18
2022-09-01T09:05:15.821Z,64.79
2022-09-01T09:08:06.862Z,64.76
2022-09-01T09:10:37.316Z,65.06
2022-09-01T09:13:26.674Z,63.68
2022-09-01T09:16:08.965Z,64.13
2022-09-01T09:18:54.719Z,64.55
2022-09-01T09:21:43.740Z,64.12
2022-09-01T09:24:17.024Z,64.08
2022-09-01T09:26:58.932Z,63.91
2022-09-01T09:29:29.914Z,64.60
2022-09-01T09:32:39.390Z,64.09
2022-09-01T09:34:56.163Z,64.43
2022-09-01T09:37:28.918Z,64.62
2022-09-01T09:40:04.777Z,65.16
2022-09-01T09:42:35.138Z,64.68
2022-09-01T09:45:04.375Z,64.78
2022-09-01T09:47:46.670Z,64.33
2022-09-01T09:50:32.973Z,65.80
2022-09-01T09:53:28.620Z,66.53
2022-09-01T09:56:19.579Z,67.36
2022-09-01T09:58:48.927Z,68.10
2022-09-01T10:01:26.081Z,68.11
2022-09-01T10:03:56.806Z,68.00
2022-09-01T10:06:38.310Z,68.28
2022-09-01T10:09:28.047Z,68.17
2022-09-01T10:11:57.464Z,68.20
2022-09-01T10:14:47.973Z,68.09
2022-09-01T10:17:20.677Z,71.06
2022-09-01T10:19:56.248Z,73.53
2022-09-01T10:22:24.075Z,71.11
2022-09-01T10:24:50.942Z,72.93
2022-09-01T10:27:25.627Z,72.41
2022-09-01T10:30:20.543Z,74.57
2022-09-01T10:32:55.357Z,75.63
2022-09-01T10:35:38.777Z,76.23
2022-09-01T10:38:11.982Z,76.50
2022-09-01T10:40:50.038Z,77.64
2022-09-01T10:43:45.321Z,77.01
2022-09-01T10:46:38.789Z,73.64
2022-09-01T10:49:27.808Z,75.09
2022-09-01T10:52:03.169Z,75.35
2022-09-01T10:54:45.227Z,74.62
2022-09-01T10:57:55.815Z,72.24
2022-09-01T11:00:36.900Z,72.41
2022-09-01T11:03:31.783Z,72.48
2022-09-01T11:06:17.740Z,71.66
2022-09-01T11:09:00.997Z,69.11
2022-09-01T11:11:45.811Z,70.06
2022-09-01T11:14:26.962Z,71.93
2022-09-01T11:17:17.301Z,70.18
2022-09-01T11:19:46.746Z,70.18
2022-09-01T11:22:19.349Z,69.47
2022-09-01T11:25:12.036Z,68.87
2022-09-01T11:27:48.740Z,67.71
2022-09-01T11:30:21.578Z,67.36
2022-09-01T11:32:52.908Z,67.15
2022-09-01T11:35:21.809Z,66.98
2022-09-01T11:37:50.135Z,67.66
2022-09-01T11:40:46.089Z,64.53
2022-09-01T11:43:16.904Z,65.84
2022-09-01T11:46:21.898Z,63.97
2022-09-01T11:48:51.805Z,65.42
2022-09-01T11:51:19.297Z,64.00
2022-09-01T11:53:46.913Z,64.23
2022-09-01T11:56:20.375Z,64.79
2022-09-01T11:58:47.772Z,64.02
2022-09-01T12:01:31.183Z,63.78
2022-09-01T12:04:19.694Z,64.91
2022-09-01T12:06:59.426Z,63.46
2022-09-01T12:09:48.050Z,63.99
2022-09-01T12:12:38.237Z,64.29
2022-09-01T12:15:25.232Z,66.28
2022-09-01T12:17:53.483Z,64.79
2022-09-01T12:20:37.915Z,65.19
2022-09-01T12:23:17.843Z,65.33
2022-09-01T12:25:45.580Z,65.17
2022-09-01T12:28:12.703Z,65.04
2022-09-01T12:30:41.542Z,64.30
2022-09-01T12:33:27.508Z,63.50
2022-09-01T12:36:21.869Z,64.15
2022-09-01T12:38:48.849Z,64.00
2022-09-01T12:41:39.094Z,62.52
2022-09-01T12:44:30.039Z,60.18
2022-09-01T12:46:59.982Z,62.16
2022-09-01T12:49:35.973Z,61.08
2022-09-01T12:52:25.953Z,61.10
2022-09-01T12:55:08.834Z,61.17
2022-09-01T12:57:51.652Z,59.99
2022-09-01T13:00:20.543Z,59.33
2022-09-01T13:03:02.949Z,58.93
2022-09-01T13:05:41.884Z,58.64
2022-09-01T13:08:12.399Z,59.60
2022-09-01T13:10:43.225Z,60.26
2022-09-01T13:13:11.324Z,60.90
2022-09-01T13:15:40.404Z,61.21
2022-09-01T13:18:07.011Z,61.04
2022-09-01T13:20:35.477Z,62.18
2022-09-01T13:23:02.475Z,61.98
2022-09-01T13:25:29.109Z,62.43
2022-09-01T13:27:55.976Z,62.37
2022-09-01T13:30:28.424Z,61.68
2022-09-01T13:35:45.421Z,61.51
2022-09-01T13:38:16.198Z,61.99
2022-09-01T13:40:43.875Z,61.71
2022-09-01T13:43:11.846Z,62.09
2022-09-01T13:45:40.815Z,62.25
2022-09-01T13:48:16.858Z,62.64
2022-09-01T13:53:39.258Z,61.58
2022-09-01T13:56:06.203Z,60.35
2022-09-01T13:58:32.838Z,60.75
2022-09-01T14:00:59.959Z,61.16
2022-09-01T14:03:26.886Z,60.17
2022-09-01T14:05:54.082Z,60.30
2022-09-01T14:08:22.889Z,60.26
2022-09-01T14:10:52.235Z,59.91
2022-09-01T14:13:35.608Z,60.05
2022-09-01T14:16:02.818Z,58.27
2022-09-01T14:18:33.009Z,56.92
2022-09-01T14:21:01.361Z,57.31
2022-09-01T14:23:30.565Z,58.13
2022-09-01T14:25:58.834Z,59.14
2022-09-01T14:28:25.696Z,59.68
2022-09-01T14:33:18.873Z,60.08
2022-09-01T14:35:47.601Z,59.88
2022-09-01T14:38:16.253Z,59.53
2022-09-01T14:40:46.631Z,59.41
2022-09-01T14:43:14.397Z,60.22
2022-09-01T14:45:47.104Z,60.58
2022-09-01T14:48:16.906Z,59.67
2022-09-01T14:50:47.304Z,58.94
2022-09-01T14:53:13.935Z,57.91
2022-09-01T14:55:44.152Z,58.72
2022-09-01T14:58:11.030Z,59.25
2022-09-01T15:00:39.242Z,58.52
2022-09-01T15:03:05.973Z,58.42
2022-09-01T15:05:39.990Z,58.75
2022-09-01T15:08:08.668Z,58.48
2022-09-01T15:10:36.693Z,57.41
2022-09-01T15:13:04.220Z,58.23
2022-09-01T15:15:31.704Z,57.97
2022-09-01T15:18:00.106Z,58.12
2022-09-01T15:20:46.599Z,58.28
2022-09-01T15:23:20.224Z,59.52
2022-09-01T15:25:48.199Z,60.80
2022-09-01T15:28:15.194Z,61.45
2022-09-01T15:30:45.587Z,61.87
2022-09-01T15:33:15.780Z,61.39
2022-09-01T15:35:44.064Z,61.59
2022-09-01T15:38:10.852Z,62.23
2022-09-01T15:40:43.528Z,62.23
2022-09-01T15:43:11.612Z,63.09
2022-09-01T15:45:39.204Z,63.34
2022-09-01T15:48:06.754Z,62.56
2022-09-01T15:50:33.414Z,62.14
2022-09-01T15:53:03.637Z,61.51
2022-09-01T15:55:40.916Z,61.05
2022-09-01T15:58:09.647Z,61.04
2022-09-01T16:00:36.360Z,61.28
2022-09-01T16:03:05.535Z,61.05
2022-09-01T16:05:35.202Z,61.14
2022-09-01T16:08:03.138Z,59.98
2022-09-01T16:10:36.552Z,60.08
2022-09-01T16:13:07.416Z,60.13
2022-09-01T16:15:35.514Z,59.38
2022-09-01T16:18:14.408Z,60.05
2022-09-01T16:20:59.514Z,61.32
2022-09-01T16:23:39.262Z,59.88
2022-09-01T16:26:05.962Z,59.71
2022-09-01T16:28:36.017Z,58.87
2022-09-01T16:31:16.329Z,58.23
2022-09-01T16:33:51.727Z,58.20
2022-09-01T16:37:00.252Z,58.19
2022-09-01T16:39:50.862Z,58.95
2022-09-01T16:42:29.362Z,59.96
2022-09-01T16:45:04.918Z,60.42
2022-09-01T16:47:46.733Z,60.39
2022-09-01T16:50:57.233Z,60.50
2022-09-01T16:53:49.317Z,60.79
2022-09-01T16:56:33.123Z,61.20
2022-09-01T16:59:06.590Z,61.50
2022-09-01T17:01:52.448Z,61.94
2022-09-01T17:04:37.451Z,62.21
2022-09-01T17:07:41.721Z,62.24
2022-09-01T17:10:33.647Z,62.12
2022-09-01T17:13:20.013Z,61.98
2022-09-01T17:15:55.517Z,62.59
2022-09-01T17:18:33.372Z,62.90
2022-09-01T17:21:32.476Z,63.08
2022-09-01T17:24:12.532Z,63.18
2022-09-01T17:26:41.360Z,63.33
2022-09-01T17:29:24.915Z,63.21
2022-09-01T17:31:59.970Z,62.91
2022-09-01T17:34:41.749Z,62.83
2022-09-01T17:37:33.067Z,63.09
2022-09-01T17:40:13.612Z,62.80
2022-09-01T17:42:45.431Z,62.75
2022-09-01T17:45:25.103Z,62.77
2022-09-01T17:47:57.809Z,62.93
2022-09-01T17:50:51.271Z,63.13
2022-09-01T17:53:27.048Z,63.22
2022-09-01T17:56:03.717Z,63.44
2022-09-01T17:58:58.468Z,63.74
2022-09-01T18:01:51.394Z,63.87
2022-09-01T18:04:24.185Z,63.90
2022-09-01T18:07:12.123Z,64.14
2022-09-01T18:09:51.282Z,64.40
2022-09-01T18:12:24.956Z,64.58
2022-09-01T18:15:11.692Z,65.04
2022-09-01T18:17:50.818Z,64.69
2022-09-01T18:20:26.067Z,64.95
2022-09-01T18:23:01.585Z,65.54
2022-09-01T18:25:36.380Z,65.62
2022-09-01T18:28:03.066Z,65.26
2022-09-01T18:30:53.398Z,65.41
2022-09-01T18:33:33.344Z,65.11
2022-09-01T18:36:24.680Z,65.67
2022-09-01T18:39:25.964Z,65.68
2022-09-01T18:42:04.626Z,65.80
2022-09-01T18:45:05.326Z,65.81
2022-09-01T18:47:54.253Z,65.88
2022-09-01T18:50:32.062Z,65.94
2022-09-01T18:53:16.351Z,65.73
2022-09-01T18:55:55.104Z,65.98
2022-09-01T18:58:37.043Z,65.76
2022-09-01T19:01:09.516Z,65.88
2022-09-01T19:03:54.143Z,65.66
2022-09-01T19:06:32.134Z,66.09
2022-09-01T19:09:38.799Z,66.44
2022-09-01T19:12:44.130Z,66.50
2022-09-01T19:15:33.757Z,66.28
2022-09-01T19:18:04.423Z,66.08
2022-09-01T19:20:45.087Z,66.23
2022-09-01T19:23:26.962Z,66.40
2022-09-01T19:26:02.288Z,66.41
2022-09-01T19:28:40.870Z,66.54
2022-09-01T19:31:22.320Z,66.65
2022-09-01T19:33:52.078Z,66.86
2022-09-01T19:36:26.747Z,66.76
2022-09-01T19:38:54.362Z,67.26
2022-09-01T19:41:39.588Z,67.24
2022-09-01T19:44:21.281Z,67.36
2022-09-01T19:46:51.791Z,67.82
2022-09-01T19:49:37.384Z,67.96
2022-09-01T19:52:10.853Z,68.12
2022-09-01T19:55:03.784Z,68.14
2022-09-01T19:57:49.820Z,68.27
2022-09-01T20:00:51.458Z,68.27
2022-09-01T20:03:27.182Z,68.40
2022-09-01T20:05:53.771Z,68.61
2022-09-01T20:08:21.100Z,68.64
2022-09-01T20:11:14.952Z,68.77
2022-09-01T20:14:03.595Z,68.94
2022-09-01T20:16:53.049Z,69.04
2022-09-01T20:19:25.603Z,68.82
2022-09-01T20:21:52.219Z,68.92
2022-09-01T20:24:25.757Z,69.43
2022-09-01T20:27:38.719Z,69.19
2022-09-01T20:30:26.746Z,68.95
2022-09-01T20:32:53.378Z,69.08
2022-09-01T20:35:29.272Z,69.34
2022-09-01T20:38:02.078Z,69.28
2022-09-01T20:40:38.557Z,69.48
2022-09-01T20:43:20.313Z,69.65
2022-09-01T20:45:46.996Z,69.86
2022-09-01T20:48:16.832Z,69.84
2022-09-01T20:50:43.643Z,69.83
2022-09-01T20:53:22.240Z,69.66
2022-09-01T20:55:57.706Z,69.85
2022-09-01T20:58:57.305Z,69.82
2022-09-01T21:01:44.447Z,70.15
2022-09-01T21:04:34.612Z,69.79
2022-09-01T21:07:08.446Z,69.89
2022-09-01T21:09:40.789Z,69.60
2022-09-01T21:12:13.514Z,69.62
2022-09-01T21:15:05.842Z,70.02
2022-09-01T21:17:57.999Z,69.81
2022-09-01T21:20:43.275Z,69.82
2022-09-01T21:23:10.226Z,70.07
2022-09-01T21:25:36.831Z,70.10
2022-09-01T21:28:06.686Z,69.88
2022-09-01T21:30:35.721Z,69.59
2022-09-01T21:33:03.093Z,69.41
2022-09-01T21:35:30.076Z,69.24
2022-09-01T21:37:56.968Z,69.48
2022-09-01T21:40:25.448Z,69.82
2022-09-01T21:42:59.808Z,69.36
2022-09-01T21:45:27.002Z,69.79
2022-09-01T21:47:54.451Z,69.88
2022-09-01T21:50:24.502Z,69.69
2022-09-01T21:52:51.851Z,70.08
2022-09-01T21:55:22.688Z,70.83
2022-09-01T21:57:50.177Z,71.13
2022-09-01T22:00:21.014Z,70.46
2022-09-01T22:02:48.074Z,70.31
2022-09-01T22:05:18.352Z,70.40
2022-09-01T22:07:46.854Z,70.16
2022-09-01T22:10:16.939Z,69.77
2022-09-01T22:12:46.156Z,70.16
2022-09-01T22:15:15.296Z,70.48
2022-09-01T22:17:42.024Z,70.66
2022-09-01T22:20:10.997Z,70.82
2022-09-01T22:22:37.671Z,71.21
2022-09-01T22:25:07.528Z,71.14
2022-09-01T22:27:34.426Z,71.18
2022-09-01T22:30:02.222Z,71.04
2022-09-01T22:32:32.974Z,70.77
2022-09-01T22:35:01.558Z,70.95
2022-09-01T22:37:28.161Z,71.31
2022-09-01T22:39:54.856Z,71.69
2022-09-01T22:42:21.577Z,71.90
2022-09-01T22:44:48.338Z,72.15
2022-09-01T22:47:14.960Z,72.44
2022-09-01T22:49:41.625Z,72.80
2022-09-01T22:52:08.316Z,72.94
2022-09-01T22:54:34.968Z,72.89
2022-09-01T22:57:02.426Z,72.67
2022-09-01T22:59:29.043Z,72.98
2022-09-01T23:01:55.721Z,72.32
2022-09-01T23:04:22.577Z,72.74
2022-09-01T23:06:51.973Z,72.98
2022-09-01T23:09:19.942Z,72.89
2022-09-01T23:11:47.914Z,73.20
2022-09-01T23:14:14.852Z,73.28
2022-09-01T23:16:42.040Z,73.49
2022-09-01T23:19:08.760Z,73.55
2022-09-01T23:21:37.481Z,73.59
2022-09-01T23:24:05.318Z,73.85
2022-09-01T23:26:32.634Z,73.57
2022-09-01T23:28:59.832Z,73.42
2022-09-01T23:31:30.108Z,73.38
2022-09-01T23:33:57.770Z,73.44
2022-09-01T23:36:26.904Z,73.49
2022-09-01T23:38:53.610Z,73.62
2022-09-01T23:41:32.364Z,73.84
2022-09-01T23:44:01.583Z,73.97
2022-09-01T23:46:34.381Z,73.77
2022-09-01T23:49:02.181Z,73.51
2022-09-01T23:51:29.593Z,73.69
2022-09-01T23:53:56.363Z,73.59
2022-09-01T23:56:25.975Z,73.74
2022-09-01T23:58:52.849Z,74.12
